Data for 10/13/2014

Time Sea-Level Adjusted Pressure Absolute Pressure Temperature Relative Humidity Dew Point   
(mb) (inHg) (mb) (inHg) (C) (F) (%) (C) (F)
00:05 1023 30.21 852 25.16 3.8 38.9 68 -1.6 29.2
00:10 1023 30.21 852 25.16 3.9 39 69 -1.3 29.7
00:15 1023 30.21 852 25.16 3.8 38.8 67 -1.7 28.9
00:20 1023 30.21 852 25.16 4 39.3 68 -1.4 29.4
00:25 1023 30.21 852 25.16 4.1 39.3 66 -1.6 29.1
00:30 1023 30.21 852 25.16 4.1 39.3 68 -1.3 29.6
00:35 1023 30.21 852 25.16 3.8 38.9 70 -1.2 29.9
00:40 1023 30.21 852 25.16 3.7 38.6 68 -1.7 29
00:45 1023 30.21 852 25.16 3.7 38.7 68 -1.7 28.9
00:50 1023 30.21 852 25.16 3.7 38.7 68 -1.5 29.2
00:55 1023 30.21 852 25.16 3.5 38.3 68 -1.7 28.9
01:00 1023 30.21 852 25.16 3.4 38.2 70 -1.6 29.1
01:05 1023 30.21 852 25.16 3.3 37.9 70 -1.7 28.9
01:10 1023 30.21 852 25.16 3.2 37.8 69 -1.9 28.6
01:15 1023 30.21 852 25.16 3.2 37.8 70 -1.7 28.9
01:20 1023 30.21 852 25.16 2.9 37.2 72 -1.7 28.9
01:25 1023 30.21 852 25.16 3 37.4 71 -1.8 28.8
01:30 1023 30.21 852 25.16 3.2 37.8 69 -1.9 28.6
01:35 1023 30.21 852 25.16 3.2 37.7 69 -2 28.5
01:40 1023 30.21 852 25.16 3.2 37.8 71 -1.6 29.1
01:45 1023 30.21 852 25.16 3.1 37.5 70 -1.8 28.7
01:50 1023 30.21 853 25.19 3.1 37.6 69 -2 28.4
01:55 1023 30.21 853 25.19 3 37.3 69 -2.1 28.3
02:00 1023 30.21 852 25.16 2.9 37.1 72 -1.6 29.1
02:05 1023 30.21 852 25.16 2.5 36.5 74 -1.7 29
02:10 1023 30.21 852 25.16 2.1 35.7 78 -1.4 29.5
02:15 1023 30.21 852 25.16 1.9 35.4 75 -2.1 28.2
02:20 1023 30.21 852 25.16 2.2 36 75 -1.7 28.9
02:25 1023 30.21 852 25.16 2.2 36 76 -1.6 29.1
02:30 1023 30.21 852 25.16 2.1 35.8 76 -1.7 28.9
02:35 1023 30.21 852 25.16 2.2 35.9 76 -1.7 29
02:40 1023 30.21 852 25.16 2 35.7 77 -1.6 29.1
02:45 1023 30.21 852 25.16 2 35.6 77 -1.6 29.1
02:50 1023 30.21 852 25.16 2.1 35.8 78 -1.4 29.5
02:55 1023 30.21 852 25.16 2.3 36.1 74 -1.8 28.7
03:00 1023 30.21 852 25.16 2.4 36.2 75 -1.7 28.9
03:05 1023 30.21 852 25.16 2.2 36 74 -1.8 28.7
03:10 1023 30.21 852 25.16 2.1 35.8 75 -1.8 28.7
03:15 1023 30.21 852 25.16 2 35.6 74 -2.2 28.1
03:20 1023 30.21 852 25.16 1.9 35.4 75 -2.1 28.2
03:25 1023 30.21 852 25.16 1.8 35.2 75 -2.1 28.1
03:30 1023 30.21 852 25.16 1.7 35.1 75 -2.3 27.9
03:35 1023 30.21 852 25.16 1.8 35.3 74 -2.4 27.7
03:40 1022 30.18 852 25.16 1.8 35.2 74 -2.4 27.7
03:45 1022 30.18 852 25.16 1.7 35 74 -2.4 27.6
03:50 1022 30.18 852 25.16 1.9 35.5 72 -2.5 27.5
03:55 1022 30.18 852 25.16 2.1 35.8 72 -2.4 27.8
04:00 1022 30.18 852 25.16 2.1 35.8 72 -2.5 27.6
04:05 1022 30.18 852 25.16 2 35.6 73 -2.3 27.8
04:10 1023 30.21 852 25.16 1.7 35.1 74 -2.5 27.6
04:15 1023 30.21 852 25.16 1.7 35 74 -2.5 27.5
04:20 1023 30.21 852 25.16 1.9 35.4 73 -2.5 27.5
04:25 1023 30.21 852 25.16 1.9 35.4 73 -2.5 27.5
04:30 1023 30.21 852 25.16 1.9 35.4 72 -2.6 27.4
04:35 1023 30.21 852 25.16 2 35.5 72 -2.6 27.2
04:40 1023 30.21 852 25.16 2 35.7 71 -2.6 27.2
04:45 1023 30.21 852 25.16 2.2 36 70 -2.7 27.1
04:50 1023 30.21 852 25.16 2.4 36.3 69 -2.7 27.2
04:55 1023 30.21 852 25.16 2.4 36.3 69 -2.7 27.2
05:00 1023 30.21 852 25.16 2.3 36.2 71 -2.4 27.6
05:05 1023 30.21 852 25.16 2.4 36.3 69 -2.8 26.9
05:10 1023 30.21 852 25.16 2.6 36.7 69 -2.6 27.4
05:15 1023 30.21 852 25.16 2.1 35.9 73 -2.3 27.9
05:20 1023 30.21 852 25.16 1.5 34.8 75 -2.4 27.7
05:25 1023 30.21 852 25.16 1.4 34.5 75 -2.6 27.3
05:30 1023 30.21 852 25.16 1.3 34.3 76 -2.5 27.6
05:35 1022 30.18 852 25.16 1.1 34 76 -2.6 27.3
05:40 1022 30.18 852 25.16 1.2 34.2 76 -2.6 27.3
05:45 1022 30.18 852 25.16 1.3 34.3 75 -2.6 27.3
05:50 1022 30.18 852 25.16 1.4 34.5 75 -2.6 27.3
05:55 1022 30.18 852 25.16 1.5 34.6 74 -2.7 27.2
06:00 1022 30.18 851 25.13 1.6 34.9 73 -2.7 27.2
06:05 1022 30.18 851 25.13 1.7 35 73 -2.6 27.3
06:10 1022 30.18 851 25.13 1.6 34.8 74 -2.5 27.4
06:15 1022 30.18 851 25.13 1.5 34.8 74 -2.6 27.4
06:20 1022 30.18 851 25.13 1.8 35.2 72 -2.7 27.1
06:25 1022 30.18 851 25.13 2 35.5 71 -2.7 27.1
06:30 1022 30.18 851 25.13 2 35.7 71 -2.6 27.2
06:35 1022 30.18 851 25.13 2.2 35.9 69 -2.9 26.8
06:40 1022 30.18 851 25.13 2.4 36.4 68 -2.8 26.9
06:45 1022 30.18 851 25.13 2.4 36.4 69 -2.6 27.3
06:50 1022 30.18 851 25.13 2.4 36.3 68 -2.9 26.8
06:55 1022 30.18 851 25.13 2.5 36.5 68 -2.8 26.9
07:00 1022 30.18 851 25.13 2.5 36.5 71 -2.3 27.8
07:05 1022 30.18 852 25.16 2.2 36 72 -2.4 27.7
07:10 1022 30.18 852 25.16 2.3 36.1 71 -2.5 27.5
07:15 1022 30.18 852 25.16 2.5 36.5 69 -2.5 27.4
07:20 1023 30.21 852 25.16 2.7 36.8 68 -2.7 27.1
07:25 1023 30.21 852 25.16 3 37.3 67 -2.6 27.3
07:30 1023 30.21 852 25.16 3.2 37.7 66 -2.6 27.3
07:35 1023 30.21 852 25.16 3.4 38.1 65 -2.6 27.3
07:40 1023 30.21 852 25.16 3.6 38.5 62 -3 26.7
07:45 1023 30.21 852 25.16 3.9 39 62 -2.7 27.2
07:50 1023 30.21 852 25.16 4 39.1 62 -2.7 27.2
07:55 1023 30.21 852 25.16 3.9 39.1 62 -2.7 27.2
08:00 1023 30.21 852 25.16 3.9 39 62 -2.6 27.3
08:05 1023 30.21 852 25.16 3.8 38.8 65 -2.1 28.2
08:10 1023 30.21 852 25.16 3.8 38.9 64 -2.5 27.6
08:15 1023 30.21 852 25.16 4.1 39.4 61 -2.7 27.1
08:20 1023 30.21 852 25.16 4.3 39.8 62 -2.3 27.8
08:25 1023 30.21 852 25.16 4.4 39.9 64 -1.8 28.8
08:30 1023 30.21 852 25.16 4.2 39.6 67 -1.4 29.5
08:35 1023 30.21 852 25.16 4.1 39.4 68 -1.2 29.8
08:40 1023 30.21 852 25.16 4.1 39.3 70 -0.9 30.3
08:45 1023 30.21 852 25.16 4.1 39.4 70 -0.8 30.5
08:50 1023 30.21 852 25.16 4.1 39.4 67 -1.5 29.4
08:55 1023 30.21 852 25.16 4.4 39.9 69 -0.9 30.5
09:00 1023 30.21 852 25.16 4.7 40.5 67 -1 30.3
09:05 1023 30.21 852 25.16 5.2 41.3 58 -2.5 27.5
09:10 1023 30.21 852 25.16 5.8 42.5 59 -1.5 29.2
09:15 1023 30.21 852 25.16 6.1 42.9 60 -1.1 30
09:20 1023 30.21 852 25.16 6.4 43.5 58 -1.2 29.9
09:25 1023 30.21 852 25.16 6.8 44.2 59 -0.6 30.9
09:30 1023 30.21 852 25.16 7.1 44.8 58 -0.5 31.2
09:35 1023 30.21 852 25.16 7.3 45.1 58 -0.5 31.1
09:40 1023 30.21 852 25.16 7.7 45.9 58 -0.1 31.8
09:45 1023 30.21 852 25.16 8 46.3 57 0 32
09:50 1023 30.21 852 25.16 8.3 46.9 56 0.2 32.3
09:55 1023 30.21 852 25.16 8.7 47.6 54 -0.1 31.9
10:00 1023 30.21 852 25.16 9 48.2 50 -0.8 30.6
10:05 1023 30.21 852 25.16 9.6 49.2 49 -0.7 30.8
10:10 1022 30.18 852 25.16 10.2 50.3 44 -1.3 29.6
10:15 1022 30.18 852 25.16 10 50 42 -2.4 27.7
10:20 1022 30.18 852 25.16 10.2 50.3 40 -2.7 27.1
10:25 1022 30.18 851 25.13 10.6 51.1 39 -2.8 27
10:30 1022 30.18 851 25.13 10.9 51.6 38 -2.7 27.1
10:35 1022 30.18 851 25.13 10.8 51.4 39 -2.5 27.5
10:40 1022 30.18 851 25.13 10.9 51.7 38 -2.8 26.9
10:45 1022 30.18 851 25.13 11.4 52.6 36 -3 26.7
10:50 1022 30.18 852 25.16 11.5 52.8 36 -3 26.6
10:55 1022 30.18 852 25.16 12 53.5 34 -3.4 25.9
11:00 1022 30.18 852 25.16 12.1 53.8 34 -3.3 26
11:05 1022 30.18 852 25.16 11.5 52.8 35 -3.4 25.8
11:10 1022 30.18 852 25.16 10.7 51.2 36 -3.8 25.1
11:15 1022 30.18 851 25.13 11.4 52.4 34 -3.8 25.2
11:20 1022 30.18 852 25.16 12 53.7 33 -3.8 25.1
11:25 1022 30.18 852 25.16 12.8 55 32 -3.5 25.8
11:30 1022 30.18 852 25.16 12.8 55 30 -4.1 24.6
11:35 1022 30.18 852 25.16 11.8 53.2 32 -4.2 24.4
11:40 1022 30.18 852 25.16 11.5 52.7 33 -4.2 24.4
11:45 1022 30.18 852 25.16 12.7 54.8 31 -3.9 24.9
11:50 1022 30.18 852 25.16 13.1 55.5 32 -3.2 26.3
11:55 1022 30.18 852 25.16 13.3 56 31 -3.4 25.9
12:00 1022 30.18 852 25.16 13.5 56.2 30 -3.7 25.3
12:05 1022 30.18 851 25.13 13.6 56.5 31 -3 26.6
12:10 1022 30.18 851 25.13 12.5 54.6 32 -3.9 25.1
12:15 1022 30.18 851 25.13 12.7 54.9 31 -3.8 25.2
12:20 1022 30.18 851 25.13 13.5 56.3 31 -3.3 26
12:25 1022 30.18 851 25.13 13.8 56.9 30 -3.5 25.6
12:30 1022 30.18 851 25.13 14.4 58 29 -3.1 26.3
12:35 1022 30.18 851 25.13 14.5 58.1 29 -3.3 26
12:40 1022 30.18 851 25.13 14.6 58.3 29 -3.4 25.9
12:45 1022 30.18 851 25.13 14.4 57.9 31 -2.5 27.5
12:50 1022 30.18 851 25.13 14 57.2 31 -2.7 27.1
12:55 1022 30.18 851 25.13 13.6 56.4 30 -3.5 25.8
13:00 1022 30.18 851 25.13 14 57.3 29 -3.7 25.4
13:05 1022 30.18 851 25.13 14 57.2 31 -3 26.6
13:10 1022 30.18 851 25.13 14.4 57.9 29 -3.2 26.2
13:15 1022 30.18 851 25.13 14.5 58.2 30 -2.9 26.7
13:20 1022 30.18 851 25.13 14.8 58.7 29 -2.9 26.8
13:25 1022 30.18 851 25.13 14.7 58.5 30 -2.8 26.9
13:30 1022 30.18 851 25.13 15 59.1 29 -2.7 27.1
13:35 1021 30.15 851 25.13 15.5 59.9 29 -2.6 27.4
13:40 1021 30.15 851 25.13 14.9 58.7 31 -2.2 28
13:45 1021 30.15 851 25.13 14.2 57.6 32 -2.1 28.2
13:50 1021 30.15 850 25.1 13.8 56.8 31 -3 26.7
13:55 1021 30.15 850 25.1 14.1 57.4 31 -2.6 27.4
14:00 1021 30.15 850 25.1 15 58.9 29 -2.9 26.7
14:05 1021 30.15 850 25.1 15.4 59.8 29 -2.2 28
14:10 1021 30.15 850 25.1 15.2 59.4 30 -2.1 28.3
14:15 1021 30.15 850 25.1 15.2 59.3 29 -2.9 26.8
14:20 1021 30.15 850 25.1 14.9 58.9 29 -2.7 27.1
14:25 1021 30.15 850 25.1 15.2 59.3 28 -3.2 26.3
14:30 1021 30.15 850 25.1 15.2 59.3 29 -2.8 26.9
14:35 1021 30.15 850 25.1 15.3 59.5 29 -2.8 27
14:40 1021 30.15 850 25.1 15.1 59.2 29 -2.7 27.2
14:45 1021 30.15 850 25.1 15.4 59.7 29 -2.3 27.9
14:50 1021 30.15 850 25.1 15.2 59.3 29 -2.4 27.6
14:55 1021 30.15 850 25.1 15 59 30 -2.3 27.9
15:00 1021 30.15 850 25.1 14.9 58.9 31 -2.1 28.3
15:05 1021 30.15 850 25.1 15 59.1 29 -2.9 26.8
15:10 1021 30.15 850 25.1 15.4 59.6 29 -2.4 27.7
15:15 1021 30.15 850 25.1 15.9 60.6 28 -2.6 27.4
15:20 1021 30.15 850 25.1 15.4 59.7 29 -2.5 27.5
15:25 1021 30.15 850 25.1 15.1 59.1 29 -2.8 27
15:30 1021 30.15 850 25.1 15 58.9 30 -2.4 27.7
15:35 1021 30.15 850 25.1 14.9 58.9 30 -2.3 27.9
15:40 1021 30.15 850 25.1 15.1 59.1 31 -2.1 28.3
15:45 1021 30.15 850 25.1 15.2 59.3 29 -2.4 27.6
15:50 1021 30.15 850 25.1 15.2 59.3 30 -2.3 27.9
15:55 1021 30.15 850 25.1 15.6 60 29 -2.5 27.5
16:00 1021 30.15 850 25.1 15.4 59.8 29 -2.2 28
16:05 1021 30.15 850 25.1 15.2 59.3 29 -2.6 27.3
16:10 1021 30.15 850 25.1 15 59 30 -2.3 27.9
16:15 1021 30.15 850 25.1 14.9 58.8 31 -2.1 28.2
16:20 1021 30.15 850 25.1 14.8 58.7 31 -2 28.4
16:25 1021 30.15 850 25.1 14.6 58.3 32 -1.6 29
16:30 1021 30.15 850 25.1 14.6 58.2 32 -1.8 28.7
16:35 1021 30.15 850 25.1 14.4 58 33 -1.5 29.3
16:40 1021 30.15 850 25.1 14.3 57.8 36 -0.4 31.2
16:45 1021 30.15 850 25.1 14.2 57.6 35 -0.8 30.5
16:50 1021 30.15 850 25.1 14.2 57.5 35 -1.1 30
16:55 1021 30.15 850 25.1 14.3 57.8 36 -0.5 31.2
17:00 1021 30.15 850 25.1 14.6 58.2 36 -0.4 31.3
17:05 1021 30.15 850 25.1 14.4 57.9 38 0.3 32.5
17:10 1021 30.15 850 25.1 13.9 57 41 0.9 33.7
17:15 1021 30.15 850 25.1 13.5 56.3 43 1.4 34.5
17:20 1021 30.15 850 25.1 13.2 55.8 45 1.6 34.9
17:25 1020 30.12 850 25.1 13 55.4 46 1.7 35.1
17:30 1020 30.12 850 25.1 12.8 55.1 47 1.9 35.5
17:35 1020 30.12 850 25.1 12.6 54.7 47 1.8 35.2
17:40 1020 30.12 850 25.1 12.3 54.1 49 2.1 35.8
17:45 1020 30.12 850 25.1 11.9 53.5 50 2 35.6
17:50 1020 30.12 850 25.1 11.7 53 52 2.2 36
17:55 1020 30.12 850 25.1 11.4 52.5 54 2.4 36.3
18:00 1020 30.12 850 25.1 11.2 52.1 54 2.2 36
18:05 1020 30.12 850 25.1 11.1 52 54 2.1 35.8
18:10 1020 30.12 850 25.1 11.1 51.9 53 1.9 35.4
18:15 1020 30.12 850 25.1 11 51.8 52 1.5 34.8
18:20 1020 30.12 850 25.1 11 51.7 52 1.5 34.6
18:25 1020 30.12 850 25.1 10.7 51.3 52 1.3 34.3
18:30 1020 30.12 850 25.1 10.4 50.6 53 1.1 34
18:35 1020 30.12 849 25.07 10.3 50.6 50 0.5 32.9
18:40 1020 30.12 849 25.07 10.5 50.8 51 0.7 33.2
18:45 1020 30.12 849 25.07 10.3 50.6 52 1 33.8
18:50 1020 30.12 849 25.07 10.2 50.4 52 0.8 33.5
18:55 1020 30.12 849 25.07 10 50 54 1.2 34.2
19:00 1020 30.12 849 25.07 9.7 49.5 54 1 33.8
19:05 1020 30.12 849 25.07 9.7 49.4 55 1.2 34.2
19:10 1020 30.12 849 25.07 9.5 49.2 55 1 33.8
19:15 1020 30.12 849 25.07 9.4 49 55 1 33.8
19:20 1020 30.12 849 25.07 9.6 49.2 54 0.8 33.5
19:25 1020 30.12 849 25.07 9.6 49.4 54 0.7 33.3
19:30 1020 30.12 849 25.07 9.7 49.4 53 0.6 33
19:35 1020 30.12 849 25.07 9.9 49.8 52 0.5 33
19:40 1020 30.12 849 25.07 9.8 49.7 53 0.7 33.2
19:45 1020 30.12 849 25.07 9.7 49.5 54 0.8 33.4
19:50 1020 30.12 849 25.07 9.7 49.4 53 0.5 32.9
19:55 1020 30.12 849 25.07 9.7 49.5 53 0.8 33.4
20:00 1020 30.12 849 25.07 9.7 49.4 53 0.6 33.1
20:05 1020 30.12 849 25.07 9.6 49.3 53 0.6 33.1
20:10 1020 30.12 849 25.07 9.7 49.5 53 0.6 33
20:15 1020 30.12 849 25.07 9.7 49.5 52 0.5 32.9
20:20 1020 30.12 849 25.07 9.6 49.3 54 0.7 33.3
20:25 1020 30.12 849 25.07 9.5 49.2 54 0.7 33.2
20:30 1020 30.12 849 25.07 9.6 49.2 53 0.4 32.7
20:35 1020 30.12 849 25.07 9.6 49.3 53 0.4 32.7
20:40 1020 30.12 849 25.07 9.6 49.3 52 0.4 32.7
20:45 1020 30.12 849 25.07 9.8 49.6 51 0.2 32.4
20:50 1020 30.12 849 25.07 9.8 49.7 51 0.2 32.4
20:55 1020 30.12 849 25.07 9.9 49.9 50 -0 32
21:00 1020 30.12 849 25.07 10.1 50.1 50 0.2 32.3
21:05 1020 30.12 849 25.07 10.1 50.2 50 0.1 32.3
21:10 1020 30.12 849 25.07 10.2 50.3 50 0.2 32.3
21:15 1020 30.12 849 25.07 10.1 50.1 50 0.1 32.3
21:20 1019 30.09 849 25.07 10.2 50.4 49 -0 31.9
21:25 1019 30.09 849 25.07 10.3 50.6 49 0.1 32.1
21:30 1020 30.12 849 25.07 10.3 50.5 49 0 32
21:35 1019 30.09 849 25.07 10.3 50.5 49 -0 32
21:40 1019 30.09 848 25.04 10.3 50.5 49 0.1 32.2
21:45 1019 30.09 848 25.04 10.3 50.6 47 -0.4 31.3
21:50 1019 30.09 848 25.04 10.5 51 48 -0.1 31.8
21:55 1019 30.09 849 25.07 10.5 50.8 48 0 32
22:00 1019 30.09 848 25.04 10.4 50.7 49 0 32.1
22:05 1019 30.09 848 25.04 10.4 50.8 48 -0.1 31.9
22:10 1019 30.09 848 25.04 10.6 51 48 -0 31.9
22:15 1019 30.09 848 25.04 10.5 50.9 49 0.2 32.3
22:20 1019 30.09 848 25.04 10.4 50.7 49 0.1 32.1
22:25 1019 30.09 848 25.04 10.3 50.6 49 0.1 32.2
22:30 1019 30.09 848 25.04 10.1 50.2 51 0.3 32.6
22:35 1019 30.09 848 25.04 10 49.9 51 0.4 32.7
22:40 1019 30.09 848 25.04 9.9 49.8 51 0.4 32.7
22:45 1019 30.09 848 25.04 9.9 49.9 52 0.4 32.8
22:50 1019 30.09 848 25.04 9.9 49.7 52 0.4 32.7
22:55 1019 30.09 848 25.04 9.9 49.8 50 -0.1 31.8
23:00 1019 30.09 848 25.04 10.1 50.1 51 0.4 32.8
23:05 1019 30.09 848 25.04 9.9 49.8 51 0.4 32.7
23:10 1019 30.09 848 25.04 9.8 49.6 52 0.4 32.8
23:15 1019 30.09 848 25.04 9.7 49.5 52 0.4 32.7
23:20 1019 30.09 848 25.04 9.7 49.5 51 0 32
23:25 1019 30.09 848 25.04 10 50.1 50 0.2 32.3
23:30 1019 30.09 848 25.04 10.2 50.3 50 0.1 32.2
23:35 1019 30.09 848 25.04 10.1 50.3 50 0.1 32.2
23:40 1019 30.09 848 25.04 10.1 50.3 50 0.2 32.4
23:45 1019 30.09 848 25.04 9.8 49.7 53 0.8 33.4
23:50 1019 30.09 848 25.04 9.3 48.8 54 0.6 33.1
23:55 1019 30.09 848 25.04 9.2 48.6 55 0.7 33.2
24:00 1019 30.09 848 25.04 9.3 48.8 54 0.5 32.8